createdAt,value
2019-02-14T00:01:31.625Z,7.33
2019-02-14T00:04:03.723Z,8.00
2019-02-14T00:06:35.232Z,8.63
2019-02-14T00:09:06.869Z,8.33
2019-02-14T00:11:35.929Z,7.60
2019-02-14T00:14:05.462Z,7.70
2019-02-14T00:16:34.601Z,7.87
2019-02-14T00:19:04.513Z,7.73
2019-02-14T00:21:38.542Z,7.77
2019-02-14T00:24:07.741Z,6.50
2019-02-14T00:26:37.656Z,7.90
2019-02-14T00:29:06.777Z,8.10
2019-02-14T00:31:35.897Z,7.70
2019-02-14T00:34:05.441Z,7.30
2019-02-14T00:36:38.299Z,7.13
2019-02-14T00:39:08.945Z,6.50
2019-02-14T00:41:38.120Z,6.90
2019-02-14T00:44:08.465Z,7.73
2019-02-14T00:46:38.777Z,7.10
2019-02-14T00:49:09.601Z,7.23
2019-02-14T00:51:41.435Z,7.60
2019-02-14T00:54:12.685Z,7.87
2019-02-14T00:56:41.472Z,7.50
2019-02-14T00:59:10.603Z,7.03
2019-02-14T01:01:39.942Z,6.10
2019-02-14T01:04:09.673Z,7.87
2019-02-14T01:06:42.227Z,7.77
2019-02-14T01:09:13.023Z,6.57
2019-02-14T01:11:42.204Z,8.07
2019-02-14T01:14:11.406Z,7.53
2019-02-14T01:16:42.403Z,7.50
2019-02-14T01:19:11.513Z,7.43
2019-02-14T01:21:43.162Z,7.10
2019-02-14T01:24:12.255Z,6.90
2019-02-14T01:26:43.043Z,6.43
2019-02-14T01:29:15.048Z,7.03
2019-02-14T01:31:48.899Z,7.10
2019-02-14T01:34:22.098Z,6.27
2019-02-14T01:36:51.253Z,6.90
2019-02-14T01:39:24.890Z,6.77
2019-02-14T01:41:55.113Z,8.93
2019-02-14T01:44:26.685Z,6.70
2019-02-14T01:46:56.987Z,6.90
2019-02-14T01:49:26.682Z,7.10
2019-02-14T01:51:56.233Z,7.20
2019-02-14T01:54:27.019Z,6.03
2019-02-14T01:56:56.216Z,6.30
2019-02-14T01:59:25.768Z,5.63
2019-02-14T02:01:57.754Z,7.20
2019-02-14T02:04:34.153Z,5.87
2019-02-14T02:07:05.471Z,6.53
2019-02-14T02:09:34.518Z,6.90
2019-02-14T02:12:04.877Z,6.40
2019-02-14T02:14:35.792Z,7.03
2019-02-14T02:17:07.845Z,6.80
2019-02-14T02:19:36.978Z,5.87
2019-02-14T02:22:07.848Z,7.63
2019-02-14T02:24:39.886Z,6.50
2019-02-14T02:27:10.239Z,6.43
2019-02-14T02:29:41.838Z,8.00
2019-02-14T02:32:11.039Z,5.50
2019-02-14T02:34:42.796Z,6.47
2019-02-14T02:37:12.975Z,6.40
2019-02-14T02:39:42.071Z,6.57
2019-02-14T02:42:11.314Z,5.77
2019-02-14T02:44:44.606Z,7.07
2019-02-14T02:47:19.230Z,5.63
2019-02-14T02:49:49.132Z,7.60
2019-02-14T02:52:21.378Z,6.43
2019-02-14T02:54:51.570Z,6.63
2019-02-14T02:57:23.006Z,6.80
2019-02-14T02:59:56.203Z,5.67
2019-02-14T03:02:27.855Z,6.17
2019-02-14T03:04:58.086Z,6.87
2019-02-14T03:07:30.596Z,6.90
2019-02-14T03:10:02.528Z,6.80
2019-02-14T03:12:36.920Z,6.40
2019-02-14T03:15:07.929Z,5.73
2019-02-14T03:17:37.039Z,6.10
2019-02-14T03:20:08.202Z,5.47
2019-02-14T03:22:38.268Z,6.67
2019-02-14T03:25:13.745Z,6.57
2019-02-14T03:27:43.258Z,8.17
2019-02-14T03:30:18.329Z,7.83
2019-02-14T03:32:48.790Z,5.60
2019-02-14T03:35:18.729Z,7.70
2019-02-14T03:37:54.481Z,7.10
2019-02-14T03:40:26.451Z,5.90
2019-02-14T03:42:55.606Z,7.13
2019-02-14T03:45:27.693Z,6.90
2019-02-14T03:47:57.168Z,6.97
2019-02-14T03:50:32.114Z,6.13
2019-02-14T03:53:08.824Z,6.10
2019-02-14T03:55:41.448Z,6.57
2019-02-14T03:58:12.939Z,5.50
2019-02-14T04:00:42.107Z,6.37
2019-02-14T04:03:15.577Z,6.63
2019-02-14T04:05:47.583Z,6.50
2019-02-14T04:08:19.273Z,6.50
2019-02-14T04:10:50.200Z,5.40
2019-02-14T04:13:19.341Z,5.63
2019-02-14T04:15:49.428Z,6.47
2019-02-14T04:18:20.803Z,6.63
2019-02-14T04:20:49.474Z,5.77
2019-02-14T04:23:18.598Z,6.83
2019-02-14T04:25:48.078Z,5.93
2019-02-14T04:28:17.202Z,6.33
2019-02-14T04:30:51.177Z,5.87
2019-02-14T04:33:26.787Z,6.73
2019-02-14T04:35:58.643Z,5.90
2019-02-14T04:38:33.002Z,6.43
2019-02-14T04:41:03.830Z,5.30
2019-02-14T04:43:33.027Z,5.47
2019-02-14T04:46:02.495Z,5.83
2019-02-14T04:48:41.774Z,6.60
2019-02-14T04:51:13.278Z,7.00
2019-02-14T04:53:42.384Z,7.37
2019-02-14T04:56:11.801Z,5.70
2019-02-14T04:58:43.310Z,6.27
2019-02-14T05:01:18.536Z,7.70
2019-02-14T05:03:49.065Z,7.50
2019-02-14T05:06:21.900Z,6.27
2019-02-14T05:08:54.591Z,6.87
2019-02-14T05:11:23.739Z,6.40
2019-02-14T05:13:52.881Z,6.93
2019-02-14T05:16:23.266Z,6.50
2019-02-14T05:18:56.048Z,6.90
2019-02-14T05:21:25.084Z,7.07
2019-02-14T05:23:55.020Z,5.70
2019-02-14T05:26:24.165Z,5.90
2019-02-14T05:28:53.417Z,6.47
2019-02-14T05:31:22.598Z,5.40
2019-02-14T05:33:57.120Z,6.10
2019-02-14T05:36:26.441Z,6.00
2019-02-14T05:38:56.935Z,5.90
2019-02-14T05:41:26.551Z,7.50
2019-02-14T05:43:57.173Z,6.07
2019-02-14T05:46:26.744Z,8.47
2019-02-14T05:48:56.653Z,6.10
2019-02-14T05:51:26.237Z,7.30
2019-02-14T05:53:55.710Z,8.33
2019-02-14T05:56:25.186Z,8.27
2019-02-14T05:58:59.777Z,7.23
2019-02-14T06:01:29.200Z,6.53
2019-02-14T06:03:58.444Z,7.10
2019-02-14T06:06:29.159Z,8.60
2019-02-14T06:08:59.642Z,8.53
2019-02-14T06:11:29.997Z,7.73
2019-02-14T06:14:00.474Z,8.67
2019-02-14T06:16:30.120Z,7.47
2019-02-14T06:19:00.988Z,8.37
2019-02-14T06:21:30.454Z,8.17
2019-02-14T06:23:59.772Z,9.83
2019-02-14T06:26:34.998Z,7.17
2019-02-14T06:29:04.462Z,6.60
2019-02-14T06:31:34.848Z,7.73
2019-02-14T06:34:05.255Z,6.80
2019-02-14T06:36:34.920Z,7.73
2019-02-14T06:39:05.717Z,6.63
2019-02-14T06:41:37.461Z,6.87
2019-02-14T06:44:09.559Z,7.47
2019-02-14T06:46:40.178Z,6.90
2019-02-14T06:49:11.255Z,6.27
2019-02-14T06:51:40.600Z,6.07
2019-02-14T06:54:09.775Z,7.30
2019-02-14T06:56:41.819Z,7.70
2019-02-14T06:59:10.992Z,6.97
2019-02-14T07:01:42.533Z,6.50
2019-02-14T07:04:16.672Z,6.87
2019-02-14T07:06:46.144Z,7.30
2019-02-14T07:09:20.906Z,7.20
2019-02-14T07:11:51.797Z,6.97
2019-02-14T07:14:23.105Z,7.23
2019-02-14T07:16:53.100Z,7.33
2019-02-14T07:19:23.885Z,7.27
2019-02-14T07:21:58.986Z,7.07
2019-02-14T07:24:28.151Z,6.77
2019-02-14T07:26:59.183Z,7.23
2019-02-14T07:29:28.560Z,9.40
2019-02-14T07:32:05.492Z,7.30
2019-02-14T07:34:34.602Z,7.43
2019-02-14T07:37:13.439Z,6.90
2019-02-14T07:39:42.566Z,7.10
2019-02-14T07:42:13.063Z,7.87
2019-02-14T07:44:42.506Z,8.57
2019-02-14T07:47:13.043Z,6.93
2019-02-14T07:49:45.429Z,7.80
2019-02-14T07:52:14.660Z,6.37
2019-02-14T07:54:43.789Z,7.90
2019-02-14T07:57:13.242Z,6.87
2019-02-14T07:59:43.160Z,7.63
2019-02-14T08:02:13.936Z,9.67
2019-02-14T08:04:43.297Z,8.70
2019-02-14T08:07:12.407Z,8.20
2019-02-14T08:09:41.557Z,7.23
2019-02-14T08:12:12.058Z,7.53
2019-02-14T08:14:45.984Z,8.53
2019-02-14T08:17:19.910Z,7.63
2019-02-14T08:19:54.578Z,7.93
2019-02-14T08:22:24.200Z,8.90
2019-02-14T08:24:56.314Z,6.30
2019-02-14T08:27:28.135Z,7.47
2019-02-14T08:30:00.700Z,7.07
2019-02-14T08:32:29.869Z,8.70
2019-02-14T08:35:01.030Z,8.00
2019-02-14T08:37:30.126Z,7.57
2019-02-14T08:39:59.246Z,7.40
2019-02-14T08:42:28.827Z,7.92
2019-02-14T08:44:58.088Z,7.80
2019-02-14T08:47:27.209Z,7.60
2019-02-14T08:49:56.340Z,8.37
2019-02-14T08:52:26.714Z,8.03
2019-02-14T08:55:01.206Z,6.57
2019-02-14T08:57:33.165Z,7.70
2019-02-14T09:00:07.568Z,8.13
2019-02-14T09:02:37.018Z,7.40
2019-02-14T09:05:12.119Z,8.37
2019-02-14T09:07:41.457Z,6.30
2019-02-14T09:10:12.458Z,7.07
2019-02-14T09:12:41.597Z,7.40
2019-02-14T09:15:11.640Z,7.00
2019-02-14T09:17:47.808Z,7.30
2019-02-14T09:20:23.242Z,7.43
2019-02-14T09:22:53.494Z,6.90
2019-02-14T09:25:23.045Z,6.77
2019-02-14T09:27:52.298Z,7.33
2019-02-14T09:30:23.978Z,7.80
2019-02-14T09:32:56.196Z,7.20
2019-02-14T09:35:27.146Z,7.50
2019-02-14T09:38:03.052Z,7.30
2019-02-14T09:40:40.049Z,7.57
2019-02-14T09:43:16.771Z,7.17
2019-02-14T09:45:47.658Z,6.30
2019-02-14T09:48:22.843Z,7.93
2019-02-14T09:50:53.243Z,7.70
2019-02-14T09:53:26.905Z,7.73
2019-02-14T09:56:06.373Z,8.70
2019-02-14T09:58:33.032Z,7.53
2019-02-14T10:01:24.364Z,7.87
2019-02-14T10:03:39.109Z,7.90
2019-02-14T10:06:08.307Z,7.10
2019-02-14T10:08:39.073Z,6.67
2019-02-14T10:11:14.502Z,7.47
2019-02-14T10:13:43.791Z,6.90
2019-02-14T10:16:13.935Z,6.80
2019-02-14T10:18:52.262Z,6.27
2019-02-14T10:21:24.331Z,6.87
2019-02-14T10:23:53.689Z,6.67
2019-02-14T10:26:24.013Z,6.87
2019-02-14T10:28:57.284Z,7.50
2019-02-14T10:31:31.346Z,7.70
2019-02-14T10:34:06.875Z,6.70
2019-02-14T10:36:37.157Z,5.67
2019-02-14T10:39:07.994Z,6.47
2019-02-14T10:41:37.230Z,5.43
2019-02-14T10:44:07.107Z,5.30
2019-02-14T10:46:36.474Z,4.30
2019-02-14T10:49:06.498Z,4.90
2019-02-14T10:51:35.796Z,4.63
2019-02-14T10:54:08.627Z,6.10
2019-02-14T10:56:38.852Z,5.90
2019-02-14T10:59:10.629Z,7.03
2019-02-14T11:01:43.525Z,5.40
2019-02-14T11:04:12.897Z,6.40
2019-02-14T11:06:42.672Z,3.93
2019-02-14T11:09:13.184Z,4.77
2019-02-14T11:11:46.301Z,5.30
2019-02-14T11:14:17.976Z,4.77
2019-02-14T11:16:47.377Z,5.07
2019-02-14T11:19:19.703Z,5.77
2019-02-14T11:21:58.024Z,5.60
2019-02-14T11:24:27.475Z,4.83
2019-02-14T11:27:03.149Z,5.10
2019-02-14T11:29:35.437Z,5.50
2019-02-14T11:32:05.255Z,6.00
2019-02-14T11:34:39.314Z,5.23
2019-02-14T11:37:13.160Z,5.67
2019-02-14T11:39:45.799Z,6.30
2019-02-14T11:42:19.135Z,5.47
2019-02-14T11:44:51.880Z,5.13
2019-02-14T11:47:20.995Z,6.53
2019-02-14T11:49:52.263Z,6.53
2019-02-14T11:52:21.708Z,5.20
2019-02-14T11:54:51.126Z,5.10
2019-02-14T11:57:22.643Z,5.80
2019-02-14T11:59:56.563Z,5.30
2019-02-14T12:02:29.437Z,6.40
2019-02-14T12:05:06.562Z,6.80
2019-02-14T12:07:35.749Z,6.33
2019-02-14T12:10:15.889Z,5.90
2019-02-14T12:12:47.001Z,5.73
2019-02-14T12:15:16.774Z,5.30
2019-02-14T12:17:45.935Z,5.30
2019-02-14T12:20:16.981Z,5.63
2019-02-14T12:22:49.966Z,6.27
2019-02-14T12:25:19.160Z,8.27
2019-02-14T12:27:48.818Z,6.43
2019-02-14T12:30:19.367Z,7.77
2019-02-14T12:32:51.155Z,7.53
2019-02-14T12:35:21.657Z,8.23
2019-02-14T12:37:54.066Z,8.60
2019-02-14T12:40:23.539Z,7.40
2019-02-14T12:42:56.949Z,8.33
2019-02-14T12:45:26.326Z,8.10
2019-02-14T12:47:58.622Z,7.60
2019-02-14T12:50:27.785Z,7.60
2019-02-14T12:53:02.668Z,6.50
2019-02-14T12:55:32.944Z,6.30
2019-02-14T12:58:02.248Z,6.87
2019-02-14T13:00:32.081Z,6.43
2019-02-14T13:03:01.363Z,6.20
2019-02-14T13:05:32.950Z,5.93
2019-02-14T13:08:04.064Z,6.27
2019-02-14T13:10:33.256Z,6.37
2019-02-14T13:13:04.952Z,6.70
2019-02-14T13:15:34.114Z,6.10
2019-02-14T13:18:04.349Z,6.10
2019-02-14T13:20:33.533Z,7.10
2019-02-14T13:23:02.830Z,5.00
2019-02-14T13:25:32.494Z,5.47
2019-02-14T13:28:01.930Z,5.53
2019-02-14T13:30:33.577Z,4.90
2019-02-14T13:33:02.795Z,5.37
2019-02-14T13:35:33.735Z,4.80
2019-02-14T13:38:05.482Z,5.90
2019-02-14T13:40:34.771Z,4.97
2019-02-14T13:43:07.362Z,6.00
2019-02-14T13:45:41.444Z,5.10
2019-02-14T13:48:13.711Z,5.10
2019-02-14T13:50:42.903Z,5.63
2019-02-14T13:53:12.106Z,6.10
2019-02-14T13:55:57.154Z,6.20
2019-02-14T13:58:26.298Z,6.20
2019-02-14T14:01:03.291Z,6.80
2019-02-14T14:03:34.901Z,7.00
2019-02-14T14:06:08.563Z,6.80
2019-02-14T14:08:41.985Z,6.60
2019-02-14T14:11:16.823Z,6.93
2019-02-14T14:13:54.496Z,6.33
2019-02-14T14:16:26.760Z,7.30
2019-02-14T14:19:05.936Z,6.07
2019-02-14T14:21:30.629Z,6.33
2019-02-14T14:24:00.142Z,7.07
2019-02-14T14:26:34.471Z,8.13
2019-02-14T14:29:13.528Z,7.87
2019-02-14T14:31:43.171Z,7.00
2019-02-14T14:34:14.016Z,7.00
2019-02-14T14:36:50.391Z,7.27
2019-02-14T14:39:26.311Z,7.20
2019-02-14T14:41:56.486Z,6.30
2019-02-14T14:44:41.934Z,6.90
2019-02-14T14:47:17.545Z,7.27
2019-02-14T14:49:48.725Z,6.77
2019-02-14T14:52:20.937Z,6.87
2019-02-14T14:54:53.102Z,5.70
2019-02-14T14:57:22.351Z,6.20
2019-02-14T14:59:55.993Z,6.30
2019-02-14T15:02:25.749Z,6.47
2019-02-14T15:04:55.476Z,5.80
2019-02-14T15:07:24.585Z,5.90
2019-02-14T15:09:57.505Z,5.80
2019-02-14T15:12:26.312Z,6.30
2019-02-14T15:14:56.002Z,6.53
2019-02-14T15:17:26.432Z,6.63
2019-02-14T15:19:58.018Z,7.80
2019-02-14T15:22:27.183Z,7.57
2019-02-14T15:24:57.620Z,6.70
2019-02-14T15:27:26.752Z,7.40
2019-02-14T15:29:57.431Z,6.63
2019-02-14T15:32:26.637Z,6.90
2019-02-14T15:34:55.898Z,7.13
2019-02-14T15:37:30.728Z,6.83
2019-02-14T15:40:08.710Z,6.20
2019-02-14T15:42:31.546Z,7.20
2019-02-14T15:45:00.705Z,6.87
2019-02-14T15:47:31.713Z,7.13
2019-02-14T15:50:03.874Z,6.13
2019-02-14T15:52:34.870Z,7.03
2019-02-14T15:55:04.025Z,7.47
2019-02-14T15:57:34.454Z,7.20
2019-02-14T16:00:10.716Z,7.13
2019-02-14T16:02:40.151Z,7.37
2019-02-14T16:05:10.670Z,7.53
2019-02-14T16:07:41.462Z,7.53
2019-02-14T16:10:18.165Z,8.07
2019-02-14T16:12:43.989Z,7.47
2019-02-14T16:15:15.454Z,7.97
2019-02-14T16:17:44.609Z,8.03
2019-02-14T16:20:17.521Z,8.60
2019-02-14T16:22:50.694Z,8.00
2019-02-14T16:25:20.199Z,8.67
2019-02-14T16:27:51.882Z,7.90
2019-02-14T16:30:21.042Z,6.80
2019-02-14T16:32:50.271Z,8.20
2019-02-14T16:35:20.983Z,8.33
2019-02-14T16:37:52.000Z,8.00
2019-02-14T16:40:27.820Z,7.43
2019-02-14T16:42:53.642Z,7.97
2019-02-14T16:45:26.945Z,7.53
2019-02-14T16:47:59.263Z,8.40
2019-02-14T16:50:29.425Z,8.43
2019-02-14T16:52:59.137Z,9.30
2019-02-14T16:55:29.634Z,9.40
2019-02-14T16:57:59.030Z,10.13
2019-02-14T17:00:33.313Z,8.77
2019-02-14T17:03:05.177Z,10.00
2019-02-14T17:05:54.660Z,9.13
2019-02-14T17:08:24.016Z,7.50
2019-02-14T17:10:56.781Z,8.03
2019-02-14T17:13:25.914Z,8.57
2019-02-14T17:15:55.062Z,8.00
2019-02-14T17:18:25.514Z,8.20
2019-02-14T17:20:54.599Z,8.70
2019-02-14T17:23:25.907Z,8.70
2019-02-14T17:26:08.270Z,8.37
2019-02-14T17:28:37.816Z,7.43
2019-02-14T17:31:08.061Z,8.37
2019-02-14T17:33:46.430Z,10.20
2019-02-14T17:36:15.733Z,7.33
2019-02-14T17:38:44.866Z,7.60
2019-02-14T17:41:14.325Z,8.00
2019-02-14T17:43:43.566Z,7.77
2019-02-14T17:46:12.935Z,8.80
2019-02-14T17:48:46.137Z,9.40
2019-02-14T17:51:22.541Z,9.53
2019-02-14T17:53:58.888Z,9.03
2019-02-14T17:56:28.408Z,13.90
2019-02-14T17:58:58.819Z,11.90
2019-02-14T18:01:28.060Z,11.67
2019-02-14T18:03:58.498Z,11.70
2019-02-14T18:06:29.705Z,10.70
2019-02-14T18:09:04.683Z,13.80
2019-02-14T18:11:34.120Z,15.97
2019-02-14T18:14:06.392Z,14.03
2019-02-14T18:16:35.531Z,15.20
2019-02-14T18:19:16.532Z,13.23
2019-02-14T18:21:45.722Z,12.97
2019-02-14T18:24:16.333Z,12.73
2019-02-14T18:26:51.605Z,16.00
2019-02-14T18:29:20.889Z,17.07
2019-02-14T18:31:51.321Z,14.07
2019-02-14T18:34:20.412Z,14.30
2019-02-14T18:36:49.996Z,16.57
2019-02-14T18:39:19.138Z,15.53
2019-02-14T18:41:48.312Z,17.03
2019-02-14T18:44:17.749Z,15.93
2019-02-14T18:46:47.933Z,15.50
2019-02-14T18:49:17.412Z,15.30
2019-02-14T18:51:46.603Z,13.77
2019-02-14T18:54:15.918Z,13.83
2019-02-14T18:56:47.604Z,13.40
2019-02-14T18:59:19.181Z,14.90
2019-02-14T19:01:48.421Z,13.83
2019-02-14T19:04:22.975Z,12.60
2019-02-14T19:06:56.520Z,12.83
2019-02-14T19:09:30.834Z,13.90
2019-02-14T19:12:00.007Z,14.07
2019-02-14T19:14:29.420Z,12.80
2019-02-14T19:17:01.268Z,12.50
2019-02-14T19:19:31.419Z,12.97
2019-02-14T19:22:05.531Z,12.90
2019-02-14T19:24:39.136Z,12.00
2019-02-14T19:27:08.289Z,9.17
2019-02-14T19:29:37.395Z,10.70
2019-02-14T19:32:07.831Z,11.80
2019-02-14T19:34:36.995Z,11.43
2019-02-14T19:37:12.869Z,9.77
2019-02-14T19:39:43.648Z,10.93
2019-02-14T19:42:14.714Z,10.63
2019-02-14T19:44:45.189Z,12.27
2019-02-14T19:47:14.757Z,12.00
2019-02-14T19:49:43.905Z,11.13
2019-02-14T19:52:13.240Z,13.73
2019-02-14T19:54:42.727Z,12.87
2019-02-14T19:57:12.014Z,20.43
2019-02-14T19:59:41.130Z,30.50
2019-02-14T20:02:10.326Z,41.20
2019-02-14T20:04:39.424Z,25.00
2019-02-14T20:07:13.020Z,30.20
2019-02-14T20:09:49.711Z,18.23
2019-02-14T20:12:20.879Z,19.40
2019-02-14T20:14:53.830Z,22.13
2019-02-14T20:17:22.970Z,24.80
2019-02-14T20:19:53.842Z,22.90
2019-02-14T20:22:23.082Z,22.53
2019-02-14T20:24:54.537Z,23.57
2019-02-14T20:27:26.685Z,24.67
2019-02-14T20:29:55.854Z,21.73
2019-02-14T20:32:26.274Z,18.23
2019-02-14T20:34:55.464Z,28.60
2019-02-14T20:37:27.806Z,18.80
2019-02-14T20:39:57.094Z,19.20
2019-02-14T20:42:26.221Z,17.60
2019-02-14T20:44:57.097Z,16.63
2019-02-14T20:47:28.321Z,15.67
2019-02-14T20:49:57.465Z,16.17
2019-02-14T20:52:28.977Z,14.87
2019-02-14T20:54:58.209Z,15.03
2019-02-14T20:57:32.554Z,17.80
2019-02-14T21:00:04.290Z,16.67
2019-02-14T21:02:44.070Z,16.17
2019-02-14T21:05:14.961Z,18.17
2019-02-14T21:07:52.130Z,16.50
2019-02-14T21:10:24.759Z,15.47
2019-02-14T21:12:53.902Z,14.77
2019-02-14T21:15:23.340Z,16.20
2019-02-14T21:17:53.286Z,14.07
2019-02-14T21:20:24.062Z,16.30
2019-02-14T21:22:53.207Z,15.80
2019-02-14T21:25:23.921Z,17.03
2019-02-14T21:27:54.247Z,17.27
2019-02-14T21:30:25.195Z,16.27
2019-02-14T21:32:57.244Z,16.37
2019-02-14T21:35:26.445Z,15.83
2019-02-14T21:37:55.565Z,14.60
2019-02-14T21:40:26.563Z,15.20
2019-02-14T21:42:55.632Z,13.20
2019-02-14T21:45:24.752Z,12.50
2019-02-14T21:47:53.900Z,11.80
2019-02-14T21:50:24.280Z,11.77
2019-02-14T21:52:55.876Z,11.80
2019-02-14T21:55:25.033Z,10.70
2019-02-14T21:57:54.199Z,11.10
2019-02-14T22:00:23.375Z,11.67
2019-02-14T22:02:53.597Z,11.43
2019-02-14T22:05:26.657Z,9.73
2019-02-14T22:08:09.182Z,8.90
2019-02-14T22:10:41.177Z,10.50
2019-02-14T22:13:19.691Z,10.67
2019-02-14T22:15:49.907Z,8.70
2019-02-14T22:18:20.113Z,9.83
2019-02-14T22:20:53.974Z,9.53
2019-02-14T22:23:23.548Z,10.07
2019-02-14T22:25:52.702Z,8.80
2019-02-14T22:28:22.044Z,10.53
2019-02-14T22:30:57.188Z,9.20
2019-02-14T22:33:29.896Z,9.67
2019-02-14T22:35:59.033Z,9.27
2019-02-14T22:38:29.430Z,8.93
2019-02-14T22:41:04.094Z,9.47
2019-02-14T22:43:35.246Z,10.37
2019-02-14T22:46:05.591Z,11.30
2019-02-14T22:48:39.028Z,10.37
2019-02-14T22:51:11.241Z,9.40
2019-02-14T22:53:40.457Z,10.70
2019-02-14T22:56:11.322Z,10.33
2019-02-14T22:58:43.615Z,9.87
2019-02-14T23:01:14.404Z,10.23
2019-02-14T23:03:43.977Z,10.30
2019-02-14T23:06:16.799Z,10.10
2019-02-14T23:08:45.840Z,12.10
2019-02-14T23:11:15.697Z,9.50
2019-02-14T23:13:44.829Z,9.77
2019-02-14T23:16:13.918Z,10.77
2019-02-14T23:18:42.978Z,10.60
2019-02-14T23:21:12.099Z,10.77
2019-02-14T23:23:41.415Z,10.10
2019-02-14T23:26:10.443Z,10.30
2019-02-14T23:28:40.653Z,10.07
2019-02-14T23:31:16.203Z,10.40
2019-02-14T23:33:48.385Z,8.93
2019-02-14T23:36:17.397Z,8.43
2019-02-14T23:38:46.457Z,8.40
2019-02-14T23:41:15.790Z,8.80
2019-02-14T23:43:46.013Z,9.67
2019-02-14T23:46:16.207Z,8.67
2019-02-14T23:48:46.840Z,10.13
2019-02-14T23:51:15.896Z,8.60
2019-02-14T23:53:44.902Z,9.50
2019-02-14T23:56:14.819Z,9.47
2019-02-14T23:58:48.502Z,9.30
